Wall, Texas
Current Conditions -  °F | °C
As of 12:51 PM on Friday 21 Nov 2014 (Local Time) from KSJT Reporting Station
Clear Clear  
Wind Chill: 73°   Ceiling: Unl
Heat Index: 73°   Visibility: 10mi
Dew Point: 54°   Wind: 13mph
Humidity: 51%   Direction: 170°S
Pressure: 30.02"   Gusts: NA
Location:  31.37°N, 100.31°W
Report Text: KSJT 211851Z 17011KT 10SM CLR 23/12 A3002 RMK AO2 SLP153 T02280122
Loading
Personal Weather Stations






























Interactive Weather Map New forecast layout! Learn more

10-Day Weather Forecast

Advertisements
Track Severe Weather on mobile